الصفحة الرئيسية
METAR-TAF:

METAR-TAF

مطار :

Phillip Goldston

Belize City, بليز

دائرة عرض: 17-32N, خط طول: 088-18W, ارتفاع: 5 متر

مراقبة الطقس الحالي

تاريخ ووقت الإصدار 42 دقيقة قبل الساعة 11:00UTC
ريح 5 عقدة من الشرق/الجنوب الشرقي
درجة الحرارة 27°درجة مئوية
الرطوبة 89%
ضغط 1008 hPa
الرؤية 10 كم أو أكثر
غيوم مفككة على ارتفاع 1700 قدم

METAR: MZBZ 221100Z 11005KT 9999 BKN017 27/25 A2978 Q1008 NOSIG

زمن: 05:42 (11:42 UTC)

توقعات

تاريخ ووقت الإصدار 2ساعات و 42 دقيقة قبل الساعة 09:00UTC
التوقعات صالحة من22 الساعة 12 UTC إلى 23 الساعة 12 UTC
ريح 10 عقدة من الشرق
الرؤية 10 كم أو أكثر
غيوم متفرقة على ارتفاع 2300 قدم
نظرية الاحتمالات 30% :
مؤقت
من 22 الساعة 12 UTC إلى 22 الساعة 18 UTC
الرؤية: 5000 متر
غيوم مفككة على ارتفاع 1500 قدم
زخات من المطر

TAF: MZBZ 220900Z 2212/2312 09010KT 9999 SCT023 PROB30 TEMPO 2212/2218 5000 SHRA BKN015

أرصاد الطقس والتوقعات من أكثر من 4000 مطار (تقارير الطقس للمطار METAR والتنبؤ بالطقس بالمطارTAF).

المحطات المتاحة هي النقط الصفراء والحمراء على الخريطة.

حرك المؤشر فوق النقطة لمعرفة اسم المحطة.

ثم انقر لمعرفة أرصاد وتوقعات الطقس.

لتغيير الخارطة: اضغط على الأزرار الخضراء مع رمز الصليب الأسود للتكبير. على الزر الأخضر مع شرطة للتصغير، أو على الأسهم الخضراء للخرائط المجاورة.


METAR-TAF: